createdAt,value
2023-03-04T00:00:01.598Z,0.69
2023-03-04T00:01:01.656Z,0.68
2023-03-04T00:02:01.781Z,0.69
2023-03-04T00:03:01.773Z,0.70
2023-03-04T00:04:01.777Z,0.68
2023-03-04T00:05:01.815Z,0.69
2023-03-04T00:06:01.897Z,0.68
2023-03-04T00:07:02.004Z,0.69
2023-03-04T00:08:01.933Z,0.69
2023-03-04T00:09:01.994Z,0.68
2023-03-04T00:10:02.020Z,0.67
2023-03-04T00:11:02.071Z,0.67
2023-03-04T00:12:02.115Z,0.70
2023-03-04T00:13:02.140Z,0.67
2023-03-04T00:14:02.158Z,0.68
2023-03-04T00:15:02.236Z,0.69
2023-03-04T00:16:02.285Z,0.69
2023-03-04T00:17:02.327Z,0.69
2023-03-04T00:18:02.317Z,0.68
2023-03-04T00:19:02.399Z,0.68
2023-03-04T00:20:02.408Z,0.68
2023-03-04T00:21:02.464Z,0.69
2023-03-04T00:22:02.532Z,0.69
2023-03-04T00:23:02.608Z,0.69
2023-03-04T00:24:02.581Z,0.68
2023-03-04T00:25:02.620Z,0.67
2023-03-04T00:26:02.676Z,0.69
2023-03-04T00:27:02.705Z,0.68
2023-03-04T00:28:02.757Z,0.69
2023-03-04T00:29:02.762Z,0.67
2023-03-04T00:31:02.878Z,0.68
2023-03-04T00:32:02.940Z,0.67
2023-03-04T00:33:02.925Z,0.68
2023-03-04T00:34:02.961Z,0.66
2023-03-04T00:35:03.004Z,0.68
2023-03-04T00:36:03.077Z,0.67
2023-03-04T00:37:03.083Z,0.68
2023-03-04T00:38:03.120Z,0.68
2023-03-04T00:39:03.134Z,0.68
2023-03-04T00:40:03.206Z,0.68
2023-03-04T00:41:03.256Z,0.68
2023-03-04T00:42:03.304Z,0.69
2023-03-04T00:43:03.324Z,0.67
2023-03-04T00:44:03.385Z,0.67
2023-03-04T00:45:03.406Z,0.69
2023-03-04T00:46:03.501Z,0.67
2023-03-04T00:47:03.463Z,0.68
2023-03-04T00:48:03.524Z,0.68
2023-03-04T00:49:03.577Z,0.66
2023-03-04T00:50:03.582Z,0.68
2023-03-04T00:51:03.642Z,0.68
2023-03-04T00:52:03.700Z,0.68
2023-03-04T00:53:03.717Z,0.68
2023-03-04T00:54:03.762Z,0.68
2023-03-04T00:55:03.792Z,0.67
2023-03-04T00:56:03.858Z,0.67
2023-03-04T00:57:03.877Z,0.66
2023-03-04T00:58:03.946Z,0.66
2023-03-04T00:59:04.005Z,0.67
2023-03-04T02:35:07.850Z,0.66
2023-03-04T02:36:07.888Z,0.66
2023-03-04T02:37:07.937Z,0.65
2023-03-04T02:38:07.980Z,0.66
2023-03-04T02:39:08.012Z,0.64
2023-03-04T02:40:08.022Z,0.65
2023-03-04T02:41:08.098Z,0.65
2023-03-04T02:42:08.133Z,0.64
2023-03-04T02:43:08.210Z,0.65
2023-03-04T02:44:08.219Z,0.65
2023-03-04T02:45:08.193Z,0.65
2023-03-04T02:46:08.262Z,0.64
2023-03-04T02:47:08.286Z,0.64
2023-03-04T02:48:08.321Z,0.66
2023-03-04T02:49:08.394Z,0.66
2023-03-04T02:50:08.390Z,0.64
2023-03-04T02:51:08.484Z,0.65
2023-03-04T02:52:08.517Z,0.65
2023-03-04T02:53:08.516Z,0.66
2023-03-04T02:54:08.561Z,0.65
2023-03-04T02:55:08.600Z,0.65
2023-03-04T02:56:08.642Z,0.65
2023-03-04T02:57:08.689Z,0.64
2023-03-04T02:58:08.733Z,0.65
2023-03-04T02:59:08.785Z,0.64
2023-03-04T03:00:08.803Z,0.64
2023-03-04T03:01:08.860Z,0.65
2023-03-04T03:02:08.957Z,0.64
2023-03-04T03:03:08.994Z,0.65
2023-03-04T03:04:08.981Z,0.64
2023-03-04T03:05:09.008Z,0.65
2023-03-04T03:06:09.048Z,0.65
2023-03-04T03:07:09.123Z,0.64
2023-03-04T03:08:09.140Z,0.65
2023-03-04T03:09:09.168Z,0.65
2023-03-04T03:10:09.241Z,0.64
2023-03-04T03:11:09.260Z,0.64
2023-03-04T03:12:09.310Z,0.65
2023-03-04T03:13:09.339Z,0.64
2023-03-04T03:14:09.384Z,0.64
2023-03-04T03:15:09.472Z,0.64
2023-03-04T03:16:09.499Z,0.64
2023-03-04T03:17:09.514Z,0.63
2023-03-04T03:18:09.540Z,0.64
2023-03-04T03:19:10.073Z,0.65
2023-03-04T03:20:09.598Z,0.65
2023-03-04T03:21:09.631Z,0.63
2023-03-04T03:22:09.730Z,0.64
2023-03-04T03:23:09.721Z,0.64
2023-03-04T03:24:09.744Z,0.63
2023-03-04T03:25:09.801Z,0.63
2023-03-04T03:26:09.885Z,0.64
2023-03-04T03:27:09.881Z,0.65
2023-03-04T03:28:09.945Z,0.64
2023-03-04T03:29:09.995Z,0.63
2023-03-04T03:30:10.001Z,0.64
2023-03-04T03:31:10.111Z,0.64
2023-03-04T03:32:10.265Z,0.65
2023-03-04T03:33:10.121Z,0.65
2023-03-04T03:34:10.191Z,0.65
2023-03-04T03:35:10.208Z,0.64
2023-03-04T03:36:10.271Z,0.64
2023-03-04T03:37:10.348Z,0.65
2023-03-04T03:38:10.322Z,0.62
2023-03-04T03:39:10.373Z,0.64
2023-03-04T03:40:10.415Z,0.63
2023-03-04T03:41:10.450Z,0.64
2023-03-04T03:42:10.481Z,0.64
2023-03-04T03:43:10.522Z,0.64
2023-03-04T03:44:10.543Z,0.64
2023-03-04T03:45:10.605Z,0.63
2023-03-04T03:46:10.682Z,0.64
2023-03-04T03:47:10.685Z,0.64
2023-03-04T03:48:10.717Z,0.62
2023-03-04T03:49:10.755Z,0.64
2023-03-04T03:50:10.816Z,0.64
2023-03-04T03:51:10.830Z,0.63
2023-03-04T03:52:10.868Z,0.63
2023-03-04T03:53:10.914Z,0.64
2023-03-04T03:54:10.954Z,0.63
2023-03-04T03:55:10.989Z,0.63
2023-03-04T03:56:11.055Z,0.62
2023-03-04T03:57:11.071Z,0.64
2023-03-04T03:58:11.116Z,0.65
2023-03-04T03:59:11.171Z,0.64
2023-03-04T04:00:11.165Z,0.63
2023-03-04T04:01:11.246Z,0.64
2023-03-04T04:02:11.307Z,0.63
2023-03-04T04:03:11.292Z,0.64
2023-03-04T04:04:11.328Z,0.63
2023-03-04T04:05:11.372Z,0.64
2023-03-04T04:06:11.418Z,0.63
2023-03-04T04:07:11.479Z,0.62
2023-03-04T04:08:11.504Z,0.63
2023-03-04T04:09:11.557Z,0.63
2023-03-04T04:10:11.588Z,0.62
2023-03-04T04:11:11.611Z,0.63
2023-03-04T04:12:11.659Z,0.62
2023-03-04T04:13:11.696Z,0.63
2023-03-04T04:14:11.737Z,0.63
2023-03-04T04:15:11.754Z,0.62
2023-03-04T04:16:11.857Z,0.62
2023-03-04T04:17:11.846Z,0.62
2023-03-04T04:18:11.927Z,0.62
2023-03-04T04:19:11.936Z,0.64
2023-03-04T04:20:11.963Z,0.64
2023-03-04T04:21:11.970Z,0.61
2023-03-04T04:22:12.011Z,0.62
2023-03-04T04:23:12.072Z,0.62
2023-03-04T04:24:12.092Z,0.62
2023-03-04T04:25:12.113Z,0.62
2023-03-04T04:26:12.202Z,0.62
2023-03-04T04:27:12.207Z,0.63
2023-03-04T04:28:12.263Z,0.63
2023-03-04T04:29:12.291Z,0.63
2023-03-04T04:30:12.374Z,0.63
2023-03-04T04:31:12.376Z,0.63
2023-03-04T04:32:12.456Z,0.61
2023-03-04T04:33:12.445Z,0.61
2023-03-04T04:34:12.488Z,0.62
2023-03-04T04:35:12.527Z,0.62
2023-03-04T04:36:12.562Z,0.62
2023-03-04T04:37:12.625Z,0.61
2023-03-04T04:38:12.615Z,0.62
2023-03-04T04:39:12.650Z,0.60
2023-03-04T04:40:12.697Z,0.62
2023-03-04T04:41:12.813Z,0.63
2023-03-04T04:42:12.783Z,0.62
2023-03-04T04:43:12.827Z,0.61
2023-03-04T04:44:12.869Z,0.61
2023-03-04T04:45:12.872Z,0.61
2023-03-04T05:00:13.457Z,0.61
2023-03-04T05:01:13.549Z,0.62
2023-03-04T05:06:13.749Z,0.62
2023-03-04T05:07:13.781Z,0.60
2023-03-04T05:08:13.795Z,0.60
2023-03-04T05:09:13.828Z,0.61
2023-03-04T05:10:13.901Z,0.61
2023-03-04T05:11:13.968Z,0.62
2023-03-04T05:12:13.989Z,0.62
2023-03-04T05:13:14.041Z,0.62
2023-03-04T05:14:14.071Z,0.62
2023-03-04T05:15:14.087Z,0.60
2023-03-04T05:16:14.180Z,0.61
2023-03-04T05:17:14.157Z,0.59
2023-03-04T05:18:14.210Z,0.62
2023-03-04T05:19:14.223Z,0.61
2023-03-04T05:20:14.282Z,0.61
2023-03-04T05:21:14.349Z,0.61
2023-03-04T05:22:14.400Z,0.60
2023-03-04T06:43:17.804Z,0.59
2023-03-04T06:46:17.861Z,0.60
2023-03-04T06:47:17.874Z,0.58
2023-03-04T06:48:17.918Z,0.59
2023-03-04T06:49:17.962Z,0.59
2023-03-04T06:50:18.003Z,0.60
2023-03-04T06:51:18.041Z,0.60
2023-03-04T06:52:18.092Z,0.60
2023-03-04T06:53:18.125Z,0.59
2023-03-04T06:54:18.190Z,0.59
2023-03-04T06:55:18.239Z,0.59
2023-03-04T06:56:18.261Z,0.58
2023-03-04T06:57:18.273Z,0.59
2023-03-04T06:58:18.346Z,0.58
2023-03-04T06:59:18.341Z,0.59
2023-03-04T07:00:18.429Z,0.59
2023-03-04T07:01:18.456Z,0.60
2023-03-04T07:02:18.495Z,0.59
2023-03-04T07:03:18.556Z,0.59
2023-03-04T07:04:18.620Z,0.59
2023-03-04T07:05:18.570Z,0.60
2023-03-04T07:06:18.628Z,0.60
2023-03-04T07:07:18.712Z,0.59
2023-03-04T07:08:20.570Z,0.60
2023-03-04T07:09:18.722Z,0.59
2023-03-04T07:10:18.692Z,0.59
2023-03-04T07:11:18.726Z,0.60
2023-03-04T07:12:18.702Z,0.60
2023-03-04T07:13:18.679Z,0.59
2023-03-04T07:14:18.684Z,0.59
2023-03-04T07:15:18.652Z,0.59
2023-03-04T07:16:18.695Z,0.59
2023-03-04T07:17:18.665Z,0.59
2023-03-04T07:18:18.638Z,0.60
2023-03-04T07:19:18.781Z,0.59
2023-03-04T07:20:18.628Z,0.60
2023-03-04T07:21:18.646Z,0.58
2023-03-04T07:22:18.609Z,0.59
2023-03-04T07:23:18.603Z,0.59
2023-03-04T07:24:18.589Z,0.58
2023-03-04T07:25:18.604Z,0.59
2023-03-04T07:26:18.591Z,0.59
2023-03-04T07:27:18.569Z,0.60
2023-03-04T07:28:18.578Z,0.59
2023-03-04T07:29:18.532Z,0.59
2023-03-04T07:30:18.542Z,0.58
2023-03-04T07:31:18.589Z,0.58
2023-03-04T07:32:18.629Z,0.59
2023-03-04T07:33:18.531Z,0.59
2023-03-04T07:34:18.562Z,0.58
2023-03-04T07:35:18.599Z,0.59
2023-03-04T07:36:18.508Z,0.60
2023-03-04T07:37:18.525Z,0.59
2023-03-04T07:38:18.473Z,0.58
2023-03-04T07:39:18.482Z,0.58
2023-03-04T07:40:18.473Z,0.59
2023-03-04T07:41:18.479Z,0.58
2023-03-04T07:42:18.484Z,0.58
2023-03-04T07:43:18.486Z,0.58
2023-03-04T07:44:18.447Z,0.58
2023-03-04T07:45:18.460Z,0.58
2023-03-04T07:46:18.501Z,0.59
2023-03-04T07:47:18.445Z,0.59
2023-03-04T07:48:18.429Z,0.59
2023-03-04T07:49:18.420Z,0.58
2023-03-04T07:50:18.510Z,0.58
2023-03-04T07:51:18.403Z,0.57
2023-03-04T07:52:18.420Z,0.58
2023-03-04T07:53:18.413Z,0.58
2023-03-04T07:54:18.370Z,0.58
2023-03-04T07:55:18.402Z,0.58
2023-03-04T07:56:18.371Z,0.59
2023-03-04T07:57:18.371Z,0.58
2023-03-04T07:58:18.334Z,0.59
2023-03-04T07:59:18.361Z,0.59
2023-03-04T08:00:18.359Z,0.59
2023-03-04T08:01:18.340Z,0.58
2023-03-04T08:02:18.377Z,0.60
2023-03-04T08:03:18.330Z,0.58
2023-03-04T08:04:18.322Z,0.58
2023-03-04T08:05:18.329Z,0.59
2023-03-04T08:06:18.291Z,0.58
2023-03-04T08:07:18.291Z,0.58
2023-03-04T08:08:18.270Z,0.59
2023-03-04T08:09:18.279Z,0.60
2023-03-04T08:10:18.313Z,0.59
2023-03-04T08:11:18.310Z,0.60
2023-03-04T08:12:18.278Z,0.59
2023-03-04T08:13:18.226Z,0.59
2023-03-04T08:14:18.252Z,0.58
2023-03-04T08:15:18.226Z,0.60
2023-03-04T08:16:18.291Z,0.60
2023-03-04T08:17:18.261Z,0.59
2023-03-04T08:18:18.222Z,0.60
2023-03-04T08:19:18.228Z,0.59
2023-03-04T08:20:18.236Z,0.59
2023-03-04T08:21:18.174Z,0.60
2023-03-04T08:22:18.249Z,0.59
2023-03-04T08:23:18.281Z,0.59
2023-03-04T08:24:18.288Z,0.59
2023-03-04T08:25:18.387Z,0.60
2023-03-04T08:26:18.411Z,0.60
2023-03-04T08:27:18.478Z,0.60
2023-03-04T08:28:18.532Z,0.60
2023-03-04T08:29:18.525Z,0.60
2023-03-04T08:30:18.612Z,0.60
2023-03-04T08:31:18.777Z,0.60
2023-03-04T08:32:18.798Z,0.60
2023-03-04T08:33:18.731Z,0.59
2023-03-04T08:34:18.733Z,0.59
2023-03-04T08:35:18.866Z,0.59
2023-03-04T08:36:18.791Z,0.59
2023-03-04T08:37:18.864Z,0.60
2023-03-04T08:38:18.869Z,0.60
2023-03-04T08:39:18.917Z,0.59
2023-03-04T08:40:18.917Z,0.60
2023-03-04T08:41:18.998Z,0.60
2023-03-04T08:42:18.997Z,0.60
2023-03-04T08:43:19.037Z,0.60
2023-03-04T08:44:19.046Z,0.60
2023-03-04T08:45:19.110Z,0.60
2023-03-04T08:46:19.138Z,0.60
2023-03-04T08:47:19.133Z,0.60
2023-03-04T08:48:19.171Z,0.60
2023-03-04T08:49:19.191Z,0.60
2023-03-04T08:50:21.358Z,0.61
2023-03-04T08:51:19.187Z,0.61
2023-03-04T08:52:19.214Z,0.60
2023-03-04T08:53:19.187Z,0.60
2023-03-04T08:54:19.176Z,0.60
2023-03-04T08:55:19.139Z,0.60
2023-03-04T08:56:19.158Z,0.60
2023-03-04T08:57:19.186Z,0.61
2023-03-04T08:58:19.155Z,0.62
2023-03-04T08:59:19.147Z,0.61
2023-03-04T09:00:19.124Z,0.61
2023-03-04T09:01:19.154Z,0.60
2023-03-04T09:02:19.127Z,0.61
2023-03-04T09:03:19.163Z,0.61
2023-03-04T09:04:19.141Z,0.61
2023-03-04T09:05:19.085Z,0.61
2023-03-04T09:06:19.097Z,0.60
2023-03-04T09:07:19.110Z,0.61
2023-03-04T09:08:19.074Z,0.60
2023-03-04T09:09:19.073Z,0.61
2023-03-04T09:10:19.080Z,0.61
2023-03-04T09:11:19.060Z,0.61
2023-03-04T09:12:19.108Z,0.61
2023-03-04T09:13:19.079Z,0.62
2023-03-04T09:14:19.045Z,0.62
2023-03-04T09:15:19.070Z,0.62
2023-03-04T09:16:19.067Z,0.63
2023-03-04T09:17:19.031Z,0.61
2023-03-04T09:18:19.045Z,0.60
2023-03-04T09:19:18.997Z,0.62
2023-03-04T09:20:18.993Z,0.61
2023-03-04T09:21:19.004Z,0.62
2023-03-04T09:22:19.015Z,0.62
2023-03-04T09:23:18.964Z,0.62
2023-03-04T09:24:18.987Z,0.62
2023-03-04T09:25:18.954Z,0.62
2023-03-04T09:26:18.977Z,0.62
2023-03-04T09:27:19.616Z,0.60
2023-03-04T09:28:18.966Z,0.60
2023-03-04T09:29:18.962Z,0.61
2023-03-04T09:30:18.942Z,0.62
2023-03-04T09:31:18.971Z,0.63
2023-03-04T09:32:18.994Z,0.63
2023-03-04T09:33:18.936Z,0.63
2023-03-04T09:34:18.898Z,0.64
2023-03-04T09:35:18.953Z,0.63
2023-03-04T09:36:18.902Z,0.60
2023-03-04T09:37:18.929Z,0.61
2023-03-04T09:38:18.883Z,0.62
2023-03-04T09:39:18.878Z,0.63
2023-03-04T09:40:18.885Z,0.62
2023-03-04T09:41:18.900Z,0.61
2023-03-04T09:42:18.876Z,0.62
2023-03-04T09:43:18.871Z,0.61
2023-03-04T09:44:18.844Z,0.63
2023-03-04T09:45:18.856Z,0.61
2023-03-04T09:46:18.839Z,0.62
2023-03-04T09:47:18.823Z,0.62
2023-03-04T09:48:18.850Z,0.62
2023-03-04T09:49:18.799Z,0.62
2023-03-04T09:50:18.818Z,0.62
2023-03-04T09:51:18.809Z,0.62
2023-03-04T09:52:18.821Z,0.62
2023-03-04T09:53:18.844Z,0.62
2023-03-04T09:54:18.940Z,0.62
2023-03-04T09:55:19.002Z,0.63
2023-03-04T09:56:19.009Z,0.62
2023-03-04T09:57:19.064Z,0.63
2023-03-04T09:58:19.117Z,0.62
2023-03-04T09:59:19.175Z,0.61
2023-03-04T10:00:19.255Z,0.62
2023-03-04T10:01:19.241Z,0.63
2023-03-04T10:02:19.345Z,0.61
2023-03-04T10:03:19.400Z,0.63
2023-03-04T10:04:19.396Z,0.62
2023-03-04T10:05:19.406Z,0.62
2023-03-04T10:06:19.484Z,0.63
2023-03-04T10:07:19.527Z,0.62
2023-03-04T10:08:19.556Z,0.63
2023-03-04T10:09:19.602Z,0.64
2023-03-04T10:10:19.686Z,0.64
2023-03-04T10:11:19.752Z,0.63
2023-03-04T10:12:19.731Z,0.62
2023-03-04T10:13:19.763Z,0.63
2023-03-04T10:14:19.806Z,0.62
2023-03-04T10:15:19.859Z,0.62
2023-03-04T10:16:19.923Z,0.61
2023-03-04T10:17:19.976Z,0.61
2023-03-04T10:18:20.626Z,0.63
2023-03-04T10:19:20.006Z,0.63
2023-03-04T10:20:20.039Z,0.63
2023-03-04T10:21:20.102Z,0.62
2023-03-04T10:22:20.141Z,0.63
2023-03-04T10:23:20.136Z,0.64
2023-03-04T10:24:20.183Z,0.63
2023-03-04T10:25:20.219Z,0.63
2023-03-04T10:26:20.275Z,0.63
2023-03-04T10:27:20.291Z,0.64
2023-03-04T10:28:20.320Z,0.63
2023-03-04T10:29:20.362Z,0.64
2023-03-04T10:30:20.402Z,0.65
2023-03-04T10:31:20.506Z,0.63
2023-03-04T10:32:20.564Z,0.64
2023-03-04T10:33:20.517Z,0.63
2023-03-04T10:34:20.510Z,0.63
2023-03-04T10:35:20.607Z,0.64
2023-03-04T10:36:20.599Z,0.64
2023-03-04T10:37:20.631Z,0.64
2023-03-04T10:38:20.688Z,0.65
2023-03-04T10:39:20.738Z,0.64
2023-03-04T10:40:20.737Z,0.64
2023-03-04T10:41:20.762Z,0.63
2023-03-04T10:42:20.855Z,0.64
2023-03-04T10:43:20.855Z,0.64
2023-03-04T10:44:20.851Z,0.66
2023-03-04T10:45:20.859Z,0.65
2023-03-04T10:46:20.921Z,0.65
2023-03-04T10:47:20.944Z,0.65
2023-03-04T10:48:20.982Z,0.63
2023-03-04T10:49:21.013Z,0.65
2023-03-04T10:50:21.061Z,0.63
2023-03-04T10:51:21.049Z,0.64
2023-03-04T10:52:21.110Z,0.65
2023-03-04T10:53:21.121Z,0.64
2023-03-04T10:54:21.162Z,0.65
2023-03-04T10:55:21.180Z,0.65
2023-03-04T10:56:21.243Z,0.64
2023-03-04T10:57:21.267Z,0.65
2023-03-04T10:58:21.282Z,0.66
2023-03-04T10:59:21.336Z,0.63
2023-03-04T11:00:21.435Z,0.65
2023-03-04T11:01:21.414Z,0.65
2023-03-04T11:02:21.415Z,0.66
2023-03-04T11:03:21.480Z,0.64
2023-03-04T11:04:21.456Z,0.64
2023-03-04T11:05:21.509Z,0.66
2023-03-04T11:06:21.537Z,0.65
2023-03-04T11:07:21.622Z,0.64
2023-03-04T11:08:21.623Z,0.64
2023-03-04T11:09:21.625Z,0.66
2023-03-04T11:10:21.651Z,0.65
2023-03-04T11:11:21.682Z,0.66
2023-03-04T11:12:21.766Z,0.65
2023-03-04T11:13:21.760Z,0.64
2023-03-04T13:54:27.862Z,0.66
2023-03-04T13:55:27.859Z,0.66
2023-03-04T13:56:27.870Z,0.66
2023-03-04T13:57:27.935Z,0.65
2023-03-04T13:58:27.948Z,0.65
2023-03-04T13:59:27.974Z,0.65
2023-03-04T14:00:27.994Z,0.65
2023-03-04T14:01:27.995Z,0.64
2023-03-04T14:02:28.036Z,0.65
2023-03-04T14:03:28.090Z,0.65
2023-03-04T14:04:28.399Z,0.64
2023-03-04T14:05:28.128Z,0.64
2023-03-04T14:06:28.170Z,0.64
2023-03-04T14:07:28.226Z,0.64
2023-03-04T14:08:28.247Z,0.64
2023-03-04T14:09:28.282Z,0.65
2023-03-04T14:10:28.357Z,0.64
2023-03-04T14:11:28.403Z,0.65
2023-03-04T14:12:28.408Z,0.65
2023-03-04T14:13:28.468Z,0.63
2023-03-04T14:14:28.512Z,0.64
2023-03-04T14:15:28.526Z,0.64
2023-03-04T14:16:28.622Z,0.64
2023-03-04T14:17:28.589Z,0.64
2023-03-04T14:18:28.665Z,0.64
2023-03-04T14:19:28.686Z,0.64
2023-03-04T14:20:28.717Z,0.64
2023-03-04T14:21:28.767Z,0.64
2023-03-04T14:22:28.785Z,0.65
2023-03-04T14:23:28.839Z,0.64
2023-03-04T14:24:28.885Z,0.65
2023-03-04T14:25:28.931Z,0.65
2023-03-04T14:26:28.952Z,0.65
2023-03-04T14:27:28.999Z,0.66
2023-03-04T14:28:29.051Z,0.65
2023-03-04T14:29:29.083Z,0.65
2023-03-04T14:30:41.639Z,0.65
2023-03-04T14:31:30.265Z,0.65
2023-03-04T14:32:29.156Z,0.65
2023-03-04T14:33:29.102Z,0.64
2023-03-04T14:34:29.096Z,0.64
2023-03-04T14:35:29.124Z,0.63
2023-03-04T14:36:29.057Z,0.65
2023-03-04T14:37:29.034Z,0.65
2023-03-04T14:38:29.058Z,0.65
2023-03-04T14:39:29.037Z,0.65
2023-03-04T14:40:29.021Z,0.64
2023-03-04T14:41:29.041Z,0.64
2023-03-04T14:42:29.057Z,0.64
2023-03-04T14:43:29.104Z,0.64
2023-03-04T14:44:29.116Z,0.65
2023-03-04T14:45:29.215Z,0.64
2023-03-04T14:46:29.248Z,0.64
2023-03-04T14:47:29.291Z,0.64
2023-03-04T14:48:29.362Z,0.64
2023-03-04T14:49:29.417Z,0.66
2023-03-04T14:50:29.478Z,0.64
2023-03-04T14:51:29.506Z,0.64
2023-03-04T14:52:29.532Z,0.65
2023-03-04T14:53:29.608Z,0.65
2023-03-04T14:54:29.647Z,0.65
2023-03-04T14:55:29.702Z,0.64
2023-03-04T14:56:29.808Z,0.63
2023-03-04T14:57:29.826Z,0.64
2023-03-04T14:58:29.885Z,0.62
2023-03-04T14:59:29.940Z,0.64
2023-03-04T15:00:29.975Z,0.64
2023-03-04T15:01:30.108Z,0.63
2023-03-04T15:02:30.100Z,0.64
2023-03-04T15:03:30.187Z,0.63
2023-03-04T15:04:30.244Z,0.64
2023-03-04T15:05:30.317Z,0.64
2023-03-04T15:06:30.380Z,0.63
2023-03-04T15:07:30.464Z,0.62
2023-03-04T15:08:30.532Z,0.63
2023-03-04T15:09:30.536Z,0.64
2023-03-04T15:10:30.638Z,0.65
2023-03-04T15:11:30.682Z,0.63
2023-03-04T15:12:30.739Z,0.63
2023-03-04T15:13:30.808Z,0.63
2023-03-04T15:14:30.838Z,0.62
2023-03-04T15:15:30.902Z,0.63
2023-03-04T15:16:31.059Z,0.62
2023-03-04T15:17:31.004Z,0.61
2023-03-04T15:18:31.070Z,0.61
2023-03-04T15:19:31.161Z,0.62
2023-03-04T15:20:31.216Z,0.63
2023-03-04T15:21:31.276Z,0.62
2023-03-04T15:22:31.355Z,0.63
2023-03-04T15:23:31.396Z,0.62
2023-03-04T15:24:31.467Z,0.62
2023-03-04T15:25:31.532Z,0.61
2023-03-04T15:26:31.557Z,0.61
2023-03-04T15:27:31.658Z,0.62
2023-03-04T15:28:31.724Z,0.61
2023-03-04T15:29:31.735Z,0.63
2023-03-04T15:30:31.827Z,0.62
2023-03-04T15:31:31.861Z,0.61
2023-03-04T15:32:31.956Z,0.61
2023-03-04T15:33:31.937Z,0.61
2023-03-04T15:34:31.998Z,0.61
2023-03-04T15:35:32.118Z,0.61
2023-03-04T15:36:32.039Z,0.59
2023-03-04T15:37:32.114Z,0.60
2023-03-04T15:38:32.146Z,0.60
2023-03-04T15:39:32.165Z,0.60
2023-03-04T15:40:32.215Z,0.62
2023-03-04T15:41:32.214Z,0.61
2023-03-04T15:42:32.269Z,0.60
2023-03-04T15:43:32.283Z,0.60
2023-03-04T15:44:32.355Z,0.60
2023-03-04T15:45:32.346Z,0.59
2023-03-04T15:46:32.343Z,0.57
2023-03-04T15:47:32.334Z,0.56
2023-03-04T15:48:32.765Z,0.60
2023-03-04T15:49:32.405Z,0.59
2023-03-04T15:50:32.428Z,0.59
2023-03-04T15:51:32.392Z,0.59
2023-03-04T15:52:32.441Z,0.59
2023-03-04T15:53:32.467Z,0.59
2023-03-04T15:54:32.473Z,0.60
2023-03-04T15:55:32.459Z,0.58
2023-03-04T15:56:32.460Z,0.58
2023-03-04T15:57:32.515Z,0.59
2023-03-04T15:58:34.892Z,0.59
2023-03-04T15:59:32.695Z,0.58
2023-03-04T16:00:32.700Z,0.58
2023-03-04T16:01:32.677Z,0.59
2023-03-04T16:02:32.728Z,0.58
2023-03-04T16:03:32.732Z,0.58
2023-03-04T16:04:32.706Z,0.59
2023-03-04T16:05:32.686Z,0.60
2023-03-04T16:06:32.666Z,0.57
2023-03-04T16:07:32.684Z,0.57
2023-03-04T16:08:32.714Z,0.57
2023-03-04T16:09:32.693Z,0.58
2023-03-04T16:10:32.647Z,0.57
2023-03-04T16:11:32.685Z,0.57
2023-03-04T16:12:32.677Z,0.57
2023-03-04T16:13:32.687Z,0.59
2023-03-04T16:14:32.694Z,0.58
2023-03-04T16:15:32.724Z,0.56
2023-03-04T16:16:32.669Z,0.58
2023-03-04T16:17:32.684Z,0.60
2023-03-04T16:18:32.666Z,0.57
2023-03-04T16:19:32.655Z,0.57
2023-03-04T16:20:32.658Z,0.57
2023-03-04T16:21:32.652Z,0.57
2023-03-04T16:22:32.687Z,0.58
2023-03-04T16:23:32.720Z,0.58
2023-03-04T16:24:32.705Z,0.57
2023-03-04T16:25:32.678Z,0.59
2023-03-04T16:26:32.706Z,0.58
2023-03-04T16:27:32.761Z,0.57
2023-03-04T16:28:32.704Z,0.57
2023-03-04T16:29:32.697Z,0.56
2023-03-04T16:30:32.710Z,0.56
2023-03-04T16:31:32.779Z,0.54
2023-03-04T16:32:34.932Z,0.55
2023-03-04T16:33:32.715Z,0.56
2023-03-04T16:34:32.721Z,0.56
2023-03-04T16:35:32.744Z,0.56
2023-03-04T16:36:32.773Z,0.57
2023-03-04T16:37:32.702Z,0.58
2023-03-04T16:38:34.412Z,0.57
2023-03-04T16:39:32.705Z,0.57
2023-03-04T16:40:32.764Z,0.58
2023-03-04T16:41:32.735Z,0.54
2023-03-04T16:42:32.716Z,0.55
2023-03-04T16:43:32.753Z,0.57
2023-03-04T16:44:32.733Z,0.56
2023-03-04T16:45:32.764Z,0.57
2023-03-04T16:46:32.873Z,0.56
2023-03-04T16:47:32.782Z,0.57
2023-03-04T16:48:32.801Z,0.56
2023-03-04T16:49:32.796Z,0.55
2023-03-04T16:50:32.836Z,0.55
2023-03-04T16:51:32.809Z,0.54
2023-03-04T16:52:32.817Z,0.54
2023-03-04T16:53:32.826Z,0.56
2023-03-04T16:54:32.832Z,0.55
2023-03-04T16:55:33.800Z,0.55
2023-03-04T16:56:32.871Z,0.56
2023-03-04T16:57:32.847Z,0.56
2023-03-04T16:58:32.863Z,0.56
2023-03-04T16:59:32.858Z,0.53
2023-03-04T17:00:32.843Z,0.54
2023-03-04T17:01:32.876Z,0.54
2023-03-04T17:02:32.915Z,0.54
2023-03-04T17:03:32.901Z,0.55
2023-03-04T17:04:32.870Z,0.57
2023-03-04T17:05:32.900Z,0.54
2023-03-04T17:06:32.914Z,0.55
2023-03-04T17:07:32.908Z,0.55
2023-03-04T17:08:32.919Z,0.53
2023-03-04T17:09:32.908Z,0.53
2023-03-04T17:10:32.906Z,0.55
2023-03-04T17:11:32.899Z,0.55
2023-03-04T17:12:32.915Z,0.55
2023-03-04T17:13:32.957Z,0.54
2023-03-04T17:14:32.938Z,0.55
2023-03-04T17:15:32.972Z,0.54
2023-03-04T17:16:32.950Z,0.55
2023-03-04T17:17:32.986Z,0.55
2023-03-04T17:18:33.251Z,0.56
2023-03-04T17:19:32.971Z,0.55
2023-03-04T17:20:32.981Z,0.54
2023-03-04T17:21:32.975Z,0.54
2023-03-04T17:22:33.020Z,0.53
2023-03-04T17:23:33.031Z,0.52
2023-03-04T17:24:33.003Z,0.53
2023-03-04T17:25:33.014Z,0.55
2023-03-04T17:26:33.022Z,0.54
2023-03-04T17:27:33.018Z,0.53
2023-03-04T17:28:33.065Z,0.53
2023-03-04T17:29:33.042Z,0.53
2023-03-04T17:30:33.085Z,0.54
2023-03-04T17:31:33.116Z,0.52
2023-03-04T17:32:33.210Z,0.53
2023-03-04T17:33:33.124Z,0.53
2023-03-04T17:34:33.133Z,0.54
2023-03-04T17:35:33.161Z,0.53
2023-03-04T17:36:33.175Z,0.51
2023-03-04T17:37:33.163Z,0.52
2023-03-04T17:38:33.202Z,0.51
2023-03-04T17:39:33.286Z,0.53
2023-03-04T17:40:33.232Z,0.51
2023-03-04T17:41:35.688Z,0.54
2023-03-04T17:42:33.200Z,0.54
2023-03-04T17:43:33.224Z,0.53
2023-03-04T17:44:33.199Z,0.51
2023-03-04T17:45:33.231Z,0.52
2023-03-04T17:46:33.237Z,0.52
2023-03-04T17:47:35.837Z,0.54
2023-03-04T17:48:33.170Z,0.54
2023-03-04T17:49:33.165Z,0.52
2023-03-04T17:50:33.147Z,0.52
2023-03-04T17:51:33.149Z,0.53
2023-03-04T17:52:33.134Z,0.52
2023-03-04T17:53:33.143Z,0.53
2023-03-04T17:54:33.154Z,0.53
2023-03-04T17:55:33.135Z,0.56
2023-03-04T17:56:33.129Z,0.56
2023-03-04T17:57:33.093Z,0.55
2023-03-04T17:58:33.120Z,0.52
2023-03-04T17:59:33.072Z,0.54
2023-03-04T18:00:33.137Z,0.55
2023-03-04T18:01:33.085Z,0.53
2023-03-04T18:02:33.163Z,0.54
2023-03-04T18:03:33.096Z,0.54
2023-03-04T18:04:33.091Z,0.54
2023-03-04T18:05:33.071Z,0.53
2023-03-04T18:06:33.044Z,0.53
2023-03-04T18:07:33.067Z,0.53
2023-03-04T18:08:33.068Z,0.54
2023-03-04T18:09:33.040Z,0.55
2023-03-04T18:10:33.048Z,0.55
2023-03-04T18:11:33.058Z,0.52
2023-03-04T18:12:33.006Z,0.54
2023-03-04T18:13:33.007Z,0.52
2023-03-04T18:14:33.013Z,0.54
2023-03-04T18:15:32.973Z,0.55
2023-03-04T18:16:33.015Z,0.56
2023-03-04T18:17:32.955Z,0.54
2023-03-04T18:18:32.983Z,0.54
2023-03-04T18:19:32.951Z,0.54
2023-03-04T18:20:32.943Z,0.54
2023-03-04T18:21:32.954Z,0.54
2023-03-04T20:02:33.259Z,0.57
2023-03-04T20:03:33.254Z,0.57
2023-03-04T20:04:33.288Z,0.56
2023-03-04T20:05:33.282Z,0.58
2023-03-04T20:06:33.304Z,0.56
2023-03-04T20:07:33.333Z,0.58
2023-03-04T20:08:33.359Z,0.57
2023-03-04T20:09:33.374Z,0.56
2023-03-04T20:10:33.395Z,0.58
2023-03-04T20:11:37.279Z,0.57
2023-03-04T20:13:33.516Z,0.57
2023-03-04T20:14:33.401Z,0.57
2023-03-04T20:15:33.434Z,0.58
2023-03-04T20:16:33.375Z,0.59
2023-03-04T20:17:33.349Z,0.56
2023-03-04T20:18:33.358Z,0.58
2023-03-04T20:19:33.367Z,0.58
2023-03-04T20:20:33.374Z,0.58
2023-03-04T20:21:33.380Z,0.56
2023-03-04T20:22:33.342Z,0.57
2023-03-04T20:23:33.353Z,0.59
2023-03-04T20:24:33.361Z,0.58
2023-03-04T20:25:33.358Z,0.57
2023-03-04T20:26:33.319Z,0.57
2023-03-04T20:27:33.315Z,0.57
2023-03-04T20:28:33.323Z,0.57
2023-03-04T20:29:33.328Z,0.57
2023-03-04T20:30:33.286Z,0.58
2023-03-04T20:31:33.305Z,0.58
2023-03-04T20:32:33.376Z,0.57
2023-03-04T20:33:33.322Z,0.57
2023-03-04T20:34:33.304Z,0.57
2023-03-04T20:35:33.415Z,0.57
2023-03-04T20:36:33.382Z,0.57
2023-03-04T20:37:33.440Z,0.58
2023-03-04T20:38:33.449Z,0.58
2023-03-04T20:39:33.456Z,0.57
2023-03-04T20:40:33.475Z,0.59
2023-03-04T20:41:33.523Z,0.57
2023-03-04T20:42:33.529Z,0.58
2023-03-04T20:43:33.547Z,0.58
2023-03-04T20:44:33.585Z,0.57
2023-03-04T20:45:33.594Z,0.57
2023-03-04T20:46:33.650Z,0.58
2023-03-04T20:47:33.652Z,0.58
2023-03-04T20:48:33.671Z,0.57
2023-03-04T20:49:33.658Z,0.58
2023-03-04T20:50:33.698Z,0.57
2023-03-04T20:51:33.737Z,0.56
2023-03-04T20:52:33.742Z,0.58
2023-03-04T20:53:33.737Z,0.58
2023-03-04T20:54:33.783Z,0.57
2023-03-04T20:55:33.819Z,0.58